Aviation Digital Data Service (ADDS)

Output produced by METARs form (0251 UTC 24 June 2021)
found at http://aviationweather.gov/metar/data/
 
TAF EPDA 240200Z 2403/2412 VRB02KT 3000 MIFG BR NSC 
     TEMPO 2403/2406 0500 FG 
     BECMG 2405/2409 CAVOK 
     TEMPO 2409/2412 SHRA BKN020CB 
     PROB30 
     TEMPO 2409/2412 TSRA BKN014CB